Time;durP1;ratioP1;P1;durP2;ratioP2;P2;SDS_P1;SDS_P2;PMS_P1;PMS_P2;Temp;Humidity;BMP_temperature;BMP_pressure;BME280_temperature;BME280_humidity;BME280_pressure;Samples;Min_cycle;Max_cycle;Signal;HPM_P1;HPM_P2
2023/12/31 00:00:34;;;;;;;;;;;;;;;3.14;100.00;96034.59;5067662;28;20148;-69
2023/12/31 00:03:00;;;;;;;;;;;;;;;3.12;100.00;96026.19;5067649;28;20256;-70
2023/12/31 00:05:26;;;;;;;;;;;;;;;3.09;100.00;96019.59;5067733;28;20023;-70
2023/12/31 00:07:52;;;;;;;;;;;;;;;3.06;100.00;96014.75;5067792;28;20024;-71
2023/12/31 00:10:18;;;;;;;;;;;;;;;3.02;100.00;96016.94;5066747;28;19959;-69
2023/12/31 00:12:44;;;;;;;;;;;;;;;3.02;100.00;96005.75;5067867;28;19971;-72
2023/12/31 00:15:10;;;;;;;;;;;;;;;3.00;100.00;96005.94;5067326;28;20164;-70
2023/12/31 00:17:36;;;;;;;;;;;;;;;2.99;100.00;95999.16;5067380;28;20137;-80
2023/12/31 00:20:03;;;;;;;;;;;;;;;2.98;100.00;95987.19;5067445;28;19952;-70
2023/12/31 00:22:29;;;;;;;;;;;;;;;2.98;100.00;95983.78;5067596;28;19958;-70
2023/12/31 00:24:55;;;;;;;;;;;;;;;2.95;100.00;95992.72;5067490;28;19990;-70
2023/12/31 00:27:21;;;;;;;;;;;;;;;2.96;100.00;95980.56;5066482;28;20004;-71
2023/12/31 00:29:50;;;;;;;;;;;;;;;2.94;100.00;95978.19;5066744;28;20245;-71
2023/12/31 00:32:16;;;;;;;;;;;;;;;2.90;100.00;95970.94;5067569;28;19971;-72
2023/12/31 00:34:42;;;;;;;;;;;;;;;2.89;100.00;95971.94;5067268;28;19951;-70
2023/12/31 00:37:08;;;;;;;;;;;;;;;2.85;100.00;95961.91;5067049;28;20021;-79
2023/12/31 00:39:33;;;;;;;;;;;;;;;2.84;100.00;95967.28;5067304;28;19957;-72
2023/12/31 00:41:59;;;;;;;;;;;;;;;2.83;100.00;95963.09;5067098;28;20295;-72
2023/12/31 00:44:25;;;;;;;;;;;;;;;2.82;100.00;95961.50;5067294;28;20033;-72
2023/12/31 00:46:51;;;;;;;;;;;;;;;2.81;100.00;95952.94;5065851;28;19957;-72
2023/12/31 00:49:17;;;;;;;;;;;;;;;2.80;100.00;95950.50;5066738;28;19961;-72
2023/12/31 00:51:43;;;;;;;;;;;;;;;2.79;100.00;95948.91;5066944;28;20123;-71
2023/12/31 00:54:09;;;;;;;;;;;;;;;2.77;100.00;95943.09;5066948;28;19951;-80
2023/12/31 00:56:35;;;;;;;;;;;;;;;2.78;100.00;95942.13;5066951;28;19989;-69
2023/12/31 00:59:02;;;;;;;;;;;;;;;2.79;100.00;95936.78;5066752;28;20131;-70
2023/12/31 01:01:28;;;;;;;;;;;;;;;2.80;100.00;95942.75;5066765;28;20238;-69
2023/12/31 01:03:54;;;;;;;;;;;;;;;2.81;100.00;95931.38;5065770;28;19958;-70
2023/12/31 01:06:20;;;;;;;;;;;;;;;2.80;100.00;95928.00;5066354;28;20259;-69
2023/12/31 01:08:46;;;;;;;;;;;;;;;2.81;100.00;95926.22;5066176;28;19967;-70
2023/12/31 01:11:12;;;;;;;;;;;;;;;2.82;100.00;95930.41;5066281;28;19952;-70
2023/12/31 01:13:38;;;;;;;;;;;;;;;2.81;100.00;95921.03;5066346;28;19964;-69
2023/12/31 01:16:04;;;;;;;;;;;;;;;2.81;100.00;95908.09;5064930;28;19963;-73
2023/12/31 01:18:31;;;;;;;;;;;;;;;2.80;100.00;95909.88;5066303;28;20015;-73
2023/12/31 01:20:56;;;;;;;;;;;;;;;2.78;100.00;95917.03;5066330;28;19950;-73
2023/12/31 01:23:22;;;;;;;;;;;;;;;2.75;100.00;95911.41;5066359;28;19960;-73
2023/12/31 01:25:49;;;;;;;;;;;;;;;2.73;100.00;95898.66;5066379;28;19949;-73
2023/12/31 01:28:15;;;;;;;;;;;;;;;2.72;100.00;95899.63;5066222;28;19975;-73
2023/12/31 01:30:41;;;;;;;;;;;;;;;2.72;100.00;95891.84;5065741;28;19940;-71
2023/12/31 01:33:06;;;;;;;;;;;;;;;2.70;100.00;95888.66;5066403;28;19966;-81
2023/12/31 01:35:32;;;;;;;;;;;;;;;2.69;100.00;95891.41;5066323;28;19954;-69
2023/12/31 01:37:58;;;;;;;;;;;;;;;2.68;100.00;95889.81;5065746;28;19956;-70
2023/12/31 01:40:24;;;;;;;;;;;;;;;2.67;100.00;95881.25;5065764;28;20128;-69
2023/12/31 01:42:50;;;;;;;;;;;;;;;2.67;100.00;95888.19;5065815;28;19987;-70
2023/12/31 01:45:16;;;;;;;;;;;;;;;2.64;100.00;95887.59;5065767;28;19961;-69
2023/12/31 01:47:42;;;;;;;;;;;;;;;2.66;100.00;95891.78;5066004;28;19954;-69
2023/12/31 01:50:12;;;;;;;;;;;;;;;2.63;100.00;95887.78;5066006;28;19953;-80
2023/12/31 01:52:38;;;;;;;;;;;;;;;2.61;100.00;95882.78;5065808;28;19954;-81
2023/12/31 01:55:04;;;;;;;;;;;;;;;2.61;100.00;95875.00;5065762;28;19952;-81
2023/12/31 01:57:31;;;;;;;;;;;;;;;2.58;100.00;95872.81;5065668;28;19972;-80
2023/12/31 01:59:58;;;;;;;;;;;;;;;2.57;100.00;95878.16;5065058;28;19952;-80
2023/12/31 02:02:24;;;;;;;;;;;;;;;2.55;100.00;95883.50;5065206;28;19960;-81
2023/12/31 02:04:51;;;;;;;;;;;;;;;2.56;100.00;95881.72;5065559;28;19959;-82
2023/12/31 02:07:17;;;;;;;;;;;;;;;2.55;100.00;95870.56;5065283;28;20119;-80
2023/12/31 02:09:44;;;;;;;;;;;;;;;2.55;100.00;95869.75;5065172;28;20226;-80
2023/12/31 02:12:10;;;;;;;;;;;;;;;2.52;100.00;95859.75;5065415;28;19976;-73
2023/12/31 02:14:35;;;;;;;;;;;;;;;2.48;100.00;95849.00;5065164;28;19957;-73
2023/12/31 02:17:01;;;;;;;;;;;;;;;2.49;100.00;95855.75;5065065;28;19965;-73
2023/12/31 02:19:27;;;;;;;;;;;;;;;2.47;100.00;95846.56;5065359;28;19948;-73
2023/12/31 02:21:54;;;;;;;;;;;;;;;2.46;100.00;95844.94;5065291;28;19982;-73
2023/12/31 02:24:20;;;;;;;;;;;;;;;2.46;100.00;95838.00;5065189;28;20229;-73
2023/12/31 02:26:46;;;;;;;;;;;;;;;2.46;100.00;95838.00;5065085;28;19964;-72
2023/12/31 02:29:12;;;;;;;;;;;;;;;2.50;100.00;95841.03;5065357;28;19944;-73
2023/12/31 02:31:38;;;;;;;;;;;;;;;2.50;100.00;95830.66;5064641;28;19996;-73
2023/12/31 02:34:05;;;;;;;;;;;;;;;2.52;100.00;95828.69;5065114;28;19966;-73
2023/12/31 02:36:31;;;;;;;;;;;;;;;2.51;100.00;95827.91;5064542;28;19973;-73
2023/12/31 02:38:57;;;;;;;;;;;;;;;2.52;100.00;95824.34;5064551;28;19953;-73
2023/12/31 02:41:23;;;;;;;;;;;;;;;2.53;100.00;95812.22;5065007;28;19961;-73
2023/12/31 02:43:49;;;;;;;;;;;;;;;2.57;100.00;95818.63;5064671;28;19955;-81
2023/12/31 02:46:15;;;;;;;;;;;;;;;2.59;100.00;95814.06;5064662;28;19963;-69
2023/12/31 02:48:41;;;;;;;;;;;;;;;2.61;100.00;95807.72;5064676;28;19952;-81
2023/12/31 02:51:07;;;;;;;;;;;;;;;2.62;100.00;95791.22;5064624;28;19997;-81
2023/12/31 02:53:33;;;;;;;;;;;;;;;2.66;100.00;95793.41;5064097;28;19957;-80
2023/12/31 02:56:00;;;;;;;;;;;;;;;2.70;100.00;95781.72;5064576;28;20117;-80
2023/12/31 02:58:26;;;;;;;;;;;;;;;2.73;100.00;95778.75;5064630;28;19948;-82
2023/12/31 03:00:52;;;;;;;;;;;;;;;2.77;100.00;95767.84;5064912;28;19955;-82
2023/12/31 03:03:17;;;;;;;;;;;;;;;2.82;100.00;95769.88;5064190;28;19952;-69
2023/12/31 03:05:43;;;;;;;;;;;;;;;2.87;100.00;95772.69;5064549;28;19974;-82
2023/12/31 03:08:09;;;;;;;;;;;;;;;2.90;100.00;95766.34;5064620;28;20244;-81
2023/12/31 03:10:35;;;;;;;;;;;;;;;2.93;100.00;95765.97;5064163;28;19958;-82
2023/12/31 03:13:01;;;;;;;;;;;;;;;2.95;100.00;95761.41;5063488;28;19951;-82
2023/12/31 03:15:26;;;;;;;;;;;;;;;2.96;100.00;95756.06;5064027;28;19960;-82
2023/12/31 03:17:52;;;;;;;;;;;;;;;2.96;100.00;95755.25;5064104;28;19956;-82
2023/12/31 03:20:18;;;;;;;;;;;;;;;2.95;100.00;95740.69;5064219;28;19958;-82
2023/12/31 03:22:45;;;;;;;;;;;;;;;2.92;100.00;95739.28;5064328;28;19953;-69
2023/12/31 03:25:11;;;;;;;;;;;;;;;2.89;100.00;95731.88;5064216;28;19963;-73
2023/12/31 03:27:37;;;;;;;;;;;;;;;2.89;100.00;95728.50;5064148;28;20207;-73
2023/12/31 03:30:03;;;;;;;;;;;;;;;2.87;100.00;95727.88;5064280;28;20044;-72
2023/12/31 03:32:28;;;;;;;;;;;;;;;2.87;100.00;95723.50;5063737;28;19978;-72
2023/12/31 03:34:54;;;;;;;;;;;;;;;2.84;100.00;95716.91;5064175;28;19955;-73
2023/12/31 03:37:20;;;;;;;;;;;;;;;2.85;100.00;95720.28;5063697;28;19966;-72
2023/12/31 03:39:46;;;;;;;;;;;;;;;2.84;100.00;95703.16;5064267;28;19952;-72
2023/12/31 03:42:12;;;;;;;;;;;;;;;2.82;100.00;95699.97;5063859;28;19992;-72
2023/12/31 03:44:38;;;;;;;;;;;;;;;2.80;100.00;95692.38;5063881;28;19958;-72
2023/12/31 03:47:04;;;;;;;;;;;;;;;2.78;100.00;95691.75;5063840;28;19954;-71
2023/12/31 03:49:29;;;;;;;;;;;;;;;2.73;100.00;95691.53;5063868;28;20234;-73
2023/12/31 03:51:55;;;;;;;;;;;;;;;2.72;100.00;95686.53;5063901;28;19953;-72
2023/12/31 03:54:21;;;;;;;;;;;;;;;2.72;100.00;95689.91;5063937;28;19957;-71
2023/12/31 03:56:47;;;;;;;;;;;;;;;2.72;100.00;95682.16;5062956;28;19973;-72
2023/12/31 03:59:13;;;;;;;;;;;;;;;2.73;100.00;95680.34;5063456;28;20222;-71
2023/12/31 04:01:45;;;;;;;;;;;;;;;2.73;100.00;95670.00;5063952;28;19956;-71
2023/12/31 04:04:16;;;;;;;;;;;;;;;2.71;100.00;95661.63;5064056;28;19955;-71
2023/12/31 04:06:45;;;;;;;;;;;;;;;2.76;100.00;95665.25;5063973;28;20238;-71
2023/12/31 04:09:11;;;;;;;;;;;;;;;2.81;100.00;95651.75;5063185;28;19965;-71
2023/12/31 04:11:37;;;;;;;;;;;;;;;2.82;100.00;95651.56;5063808;28;19958;-71
2023/12/31 04:14:03;;;;;;;;;;;;;;;2.83;100.00;95639.41;5063569;28;19952;-71
2023/12/31 04:16:29;;;;;;;;;;;;;;;2.83;100.00;95652.34;5063602;28;20308;-68
2023/12/31 04:18:55;;;;;;;;;;;;;;;2.82;100.00;95643.78;5063571;28;20258;-79
2023/12/31 04:21:20;;;;;;;;;;;;;;;2.82;100.00;95643.78;5063656;28;19994;-79
2023/12/31 04:23:46;;;;;;;;;;;;;;;2.80;100.00;95645.78;5063544;28;20009;-79
2023/12/31 04:26:13;;;;;;;;;;;;;;;2.78;100.00;95631.44;5048684;28;20221;-79
2023/12/31 04:28:39;;;;;;;;;;;;;;;2.74;100.00;95638.75;5066873;28;19955;-80
2023/12/31 04:31:06;;;;;;;;;;;;;;;2.71;100.00;95631.38;5067154;28;19996;-78
2023/12/31 04:33:32;;;;;;;;;;;;;;;2.68;100.00;95629.16;5066931;28;19960;-78
2023/12/31 04:36:02;;;;;;;;;;;;;;;2.64;100.00;95626.13;5066934;28;19953;-71
2023/12/31 04:38:28;;;;;;;;;;;;;;;2.61;100.00;95616.16;5066625;28;19959;-70
2023/12/31 04:40:54;;;;;;;;;;;;;;;2.61;100.00;95623.16;5066880;28;19960;-69
2023/12/31 04:43:19;;;;;;;;;;;;;;;2.59;100.00;95623.31;5067408;28;19959;-69
2023/12/31 04:45:45;;;;;;;;;;;;;;;2.58;100.00;95613.97;5066889;28;19955;-69
2023/12/31 04:48:11;;;;;;;;;;;;;;;2.58;100.00;95619.16;5066495;28;19976;-69
2023/12/31 04:50:37;;;;;;;;;;;;;;;2.57;100.00;95608.97;5066956;28;20007;-69
2023/12/31 04:53:03;;;;;;;;;;;;;;;2.56;100.00;95609.94;5066910;28;19981;-73
2023/12/31 04:55:28;;;;;;;;;;;;;;;2.55;100.00;95609.16;5066455;28;20227;-73
2023/12/31 04:57:54;;;;;;;;;;;;;;;2.54;100.00;95598.97;5066756;28;19975;-82
2023/12/31 05:00:20;;;;;;;;;;;;;;;2.51;100.00;95600.16;5066847;28;19964;-82
2023/12/31 05:02:46;;;;;;;;;;;;;;;2.50;100.00;95603.75;5066478;28;19961;-83
2023/12/31 05:05:12;;;;;;;;;;;;;;;2.48;100.00;95597.97;5067147;28;20033;-82
2023/12/31 05:07:38;;;;;;;;;;;;;;;2.47;100.00;95596.34;5066220;28;19958;-82
2023/12/31 05:10:04;;;;;;;;;;;;;;;2.44;100.00;95594.16;5066470;28;20132;-80
2023/12/31 05:12:30;;;;;;;;;;;;;;;2.44;100.00;95594.94;5066325;28;19957;-72
2023/12/31 05:14:56;;;;;;;;;;;;;;;2.45;100.00;95585.38;5066585;28;19954;-72
2023/12/31 05:17:22;;;;;;;;;;;;;;;2.47;100.00;95583.41;5066072;28;19989;-72
2023/12/31 05:19:48;;;;;;;;;;;;;;;2.48;100.00;95579.84;5066494;28;19961;-74
2023/12/31 05:22:14;;;;;;;;;;;;;;;2.49;100.00;95584.03;5066443;28;19967;-73
2023/12/31 05:24:40;;;;;;;;;;;;;;;2.50;100.00;95580.47;5066236;28;19957;-74
2023/12/31 05:27:06;;;;;;;;;;;;;;;2.51;100.00;95584.63;5066242;28;19971;-73
2023/12/31 05:29:32;;;;;;;;;;;;;;;2.53;100.00;95577.47;5065846;28;20189;-72
2023/12/31 05:31:57;;;;;;;;;;;;;;;2.54;100.00;95573.09;5066325;28;20024;-70
2023/12/31 05:34:23;;;;;;;;;;;;;;;2.54;100.00;95575.69;5065849;28;19960;-72
2023/12/31 05:36:49;;;;;;;;;;;;;;;2.54;100.00;95575.69;5065009;28;19994;-73
2023/12/31 05:39:15;;;;;;;;;;;;;;;2.53;100.00;95569.72;5065909;28;19986;-72
2023/12/31 05:41:41;;;;;;;;;;;;;;;2.53;100.00;95566.34;5065811;28;20020;-73
2023/12/31 05:44:07;;;;;;;;;;;;;;;2.53;100.00;95569.72;5065812;28;19956;-73
2023/12/31 05:46:32;;;;;;;;;;;;;;;2.55;100.00;95564.38;5065805;28;19961;-73
2023/12/31 05:48:58;;;;;;;;;;;;;;;2.56;100.00;95559.00;5065795;28;19954;-69
2023/12/31 05:51:24;;;;;;;;;;;;;;;2.56;100.00;95565.94;5066679;28;19964;-72
2023/12/31 05:53:50;;;;;;;;;;;;;;;2.56;100.00;95559.00;5065724;28;19959;-73
2023/12/31 05:56:16;;;;;;;;;;;;;;;2.55;100.00;95543.66;5065911;28;19944;-71
2023/12/31 05:58:46;;;;;;;;;;;;;;;2.54;100.00;95531.69;5065301;28;19957;-72
2023/12/31 06:01:12;;;;;;;;;;;;;;;2.54;100.00;95534.28;5065444;28;20241;-72
2023/12/31 06:03:38;;;;;;;;;;;;;;;2.55;100.00;95541.06;5065777;28;20004;-72
2023/12/31 06:06:04;;;;;;;;;;;;;;;2.56;100.00;95542.66;5065143;28;20235;-72
2023/12/31 06:08:30;;;;;;;;;;;;;;;2.60;100.00;95536.13;5065564;28;19967;-84
2023/12/31 06:10:56;;;;;;;;;;;;;;;2.59;100.00;95532.72;5065480;28;20022;-72
2023/12/31 06:13:22;;;;;;;;;;;;;;;2.59;100.00;95535.31;5065575;28;20139;-71
2023/12/31 06:15:47;;;;;;;;;;;;;;;2.60;100.00;95536.13;5065118;28;19958;-72
2023/12/31 06:18:13;;;;;;;;;;;;;;;2.61;100.00;95541.09;5065136;28;20029;-72
2023/12/31 06:20:39;;;;;;;;;;;;;;;2.62;100.00;95532.38;5065308;28;20063;-72
2023/12/31 06:23:06;;;;;;;;;;;;;;;2.65;100.00;95538.94;5065216;28;20035;-72
2023/12/31 06:25:31;;;;;;;;;;;;;;;2.66;100.00;95542.31;5064677;28;20258;-68
2023/12/31 06:27:57;;;;;;;;;;;;;;;2.69;100.00;95541.94;5065158;28;20691;-71
2023/12/31 06:30:23;;;;;;;;;;;;;;;2.70;100.00;95554.69;5064687;28;19959;-71
2023/12/31 06:32:50;;;;;;;;;;;;;;;2.74;100.00;95550.75;5064452;28;19964;-73
2023/12/31 06:35:15;;;;;;;;;;;;;;;2.75;100.00;95552.34;5064697;28;20261;-71
2023/12/31 06:37:41;;;;;;;;;;;;;;;2.78;100.00;95557.13;5064616;28;19969;-70
2023/12/31 06:40:08;;;;;;;;;;;;;;;2.80;100.00;95554.38;5064962;28;19954;-70
2023/12/31 06:42:34;;;;;;;;;;;;;;;2.81;100.00;95545.59;5064687;28;20288;-70
2023/12/31 06:45:00;;;;;;;;;;;;;;;2.80;100.00;95557.75;5064714;28;19958;-72
2023/12/31 06:47:25;;;;;;;;;;;;;;;2.83;100.00;95547.03;5064492;28;20161;-77
2023/12/31 06:49:52;;;;;;;;;;;;;;;2.88;100.00;95561.16;5064735;28;19952;-79
2023/12/31 06:52:18;;;;;;;;;;;;;;;2.88;100.00;95561.97;5063468;28;20119;-79
2023/12/31 06:54:44;;;;;;;;;;;;;;;2.91;100.00;95556.41;5064195;28;19952;-79
2023/12/31 06:57:10;;;;;;;;;;;;;;;2.94;100.00;95548.28;5064761;28;20474;-79
2023/12/31 06:59:36;;;;;;;;;;;;;;;2.97;100.00;95560.81;5064170;28;19992;-80
2023/12/31 07:02:02;;;;;;;;;;;;;;;2.98;100.00;95559.84;5064167;28;19985;-79
2023/12/31 07:04:28;;;;;;;;;;;;;;;3.01;100.00;95563.84;5064172;28;20274;-79
2023/12/31 07:06:54;;;;;;;;;;;;;;;3.02;100.00;95558.47;5064164;28;19951;-69
2023/12/31 07:09:20;;;;;;;;;;;;;;;3.04;100.00;95553.91;5064378;28;19964;-69
2023/12/31 07:11:45;;;;;;;;;;;;;;;3.09;100.00;95568.03;5064061;28;20149;-69
2023/12/31 07:14:11;;;;;;;;;;;;;;;3.11;100.00;95564.28;5064243;28;19961;-69
2023/12/31 07:16:39;;;;;;;;;;;;;;;3.16;100.00;95576.66;5063458;28;20133;-70
2023/12/31 07:19:05;;;;;;;;;;;;;;;3.20;100.00;95575.28;5046404;28;19955;-69
2023/12/31 07:21:30;;;;;;;;;;;;;;;3.23;100.00;95556.75;5064276;28;19994;-78
2023/12/31 07:23:58;;;;;;;;;;;;;;;3.23;100.00;95567.94;5064265;28;20134;-73
2023/12/31 07:26:25;;;;;;;;;;;;;;;3.25;100.00;95559.94;5064477;28;19966;-72
2023/12/31 07:28:51;;;;;;;;;;;;;;;3.27;100.00;95568.31;5064114;28;20110;-73
2023/12/31 07:31:16;;;;;;;;;;;;;;;3.30;100.00;95567.13;5064150;28;19968;-72
2023/12/31 07:33:42;;;;;;;;;;;;;;;3.32;100.00;95559.97;5063685;28;19951;-73
2023/12/31 07:36:08;;;;;;;;;;;;;;;3.38;100.00;95556.59;5063944;28;19970;-73
2023/12/31 07:38:34;;;;;;;;;;;;;;;3.44;100.00;95561.00;5063996;28;19964;-68
2023/12/31 07:41:00;;;;;;;;;;;;;;;3.48;100.00;95572.56;5063579;28;19959;-71
2023/12/31 07:43:26;;;;;;;;;;;;;;;3.51;100.00;95556.66;5063945;28;19951;-81
2023/12/31 07:45:52;;;;;;;;;;;;;;;3.52;100.00;95558.25;5063828;28;19956;-82
2023/12/31 07:48:19;;;;;;;;;;;;;;;3.52;100.00;95562.63;5063997;28;19952;-85
2023/12/31 07:50:45;;;;;;;;;;;;;;;3.52;100.00;95539.31;5063504;28;19962;-86
2023/12/31 07:53:10;;;;;;;;;;;;;;;3.56;100.00;95543.91;5063990;28;19961;-84
2023/12/31 07:55:36;;;;;;;;;;;;;;;3.59;100.00;95542.69;5064104;28;19945;-85
2023/12/31 07:58:02;;;;;;;;;;;;;;;3.59;100.00;95540.09;5064093;28;19965;-68
2023/12/31 08:00:28;;;;;;;;;;;;;;;3.60;100.00;95541.72;5065410;28;19949;-71
2023/12/31 08:02:54;;;;;;;;;;;;;;;3.63;100.00;95544.72;5067591;28;19963;-71
2023/12/31 08:05:20;;;;;;;;;;;;;;;3.65;100.00;95534.97;5067422;28;19945;-70
2023/12/31 08:07:45;;;;;;;;;;;;;;;3.69;100.00;95534.53;5067827;28;19956;-72
2023/12/31 08:10:11;;;;;;;;;;;;;;;3.72;100.00;95526.38;5067485;28;19962;-72
2023/12/31 08:12:37;;;;;;;;;;;;;;;3.75;100.00;95523.41;5067442;28;20016;-71
2023/12/31 08:15:04;;;;;;;;;;;;;;;3.77;100.00;95518.81;5067461;28;19952;-72
2023/12/31 08:17:30;;;;;;;;;;;;;;;3.81;100.00;95522.59;5067494;28;20146;-80
2023/12/31 08:19:55;;;;;;;;;;;;;;;3.83;100.00;95516.22;5067040;28;19960;-69
2023/12/31 08:22:21;;;;;;;;;;;;;;;3.88;100.00;95509.63;5067524;28;20245;-69
2023/12/31 08:24:47;;;;;;;;;;;;;;;3.91;100.00;95504.06;5067669;28;19949;-69
2023/12/31 08:27:13;;;;;;;;;;;;;;;3.94;100.00;95511.44;5067419;28;19961;-68
2023/12/31 08:29:40;;;;;;;;;;;;;;;3.98;100.00;95507.44;5067357;28;19951;-69
2023/12/31 08:32:05;;;;;;;;;;;;;;;3.99;100.00;95502.06;5067354;28;19962;-69
2023/12/31 08:34:31;;;;;;;;;;;;;;;4.03;100.00;95500.69;5067316;28;19993;-84
2023/12/31 08:36:57;;;;;;;;;;;;;;;4.06;100.00;95474.31;5066980;28;19963;-72
2023/12/31 08:39:23;;;;;;;;;;;;;;;4.12;100.00;95482.31;5067004;28;19977;-71
2023/12/31 08:41:49;;;;;;;;;;;;;;;4.17;100.00;95492.88;5067009;28;19971;-71
2023/12/31 08:44:15;;;;;;;;;;;;;;;4.21;100.00;95483.69;5067043;28;19990;-72
2023/12/31 08:46:41;;;;;;;;;;;;;;;4.24;100.00;95494.47;5066947;28;20004;-71
2023/12/31 08:49:07;;;;;;;;;;;;;;;4.27;100.00;95475.91;5067001;28;19951;-71
2023/12/31 08:51:32;;;;;;;;;;;;;;;4.33;100.00;95478.69;5067054;28;20006;-71
2023/12/31 08:53:58;;;;;;;;;;;;;;;4.38;100.00;95484.06;5066890;28;19952;-71
2023/12/31 08:56:24;;;;;;;;;;;;;;;4.41;100.00;95483.66;5066350;28;19994;-69
2023/12/31 08:58:50;;;;;;;;;;;;;;;4.44;100.00;95481.47;5066389;28;19972;-68
2023/12/31 09:01:19;;;;;;;;;;;;;;;4.49;100.00;95475.66;5048954;28;19965;-69
2023/12/31 09:03:45;;;;;;;;;;;;;;;4.55;100.00;95476.66;5066594;28;20245;-69
2023/12/31 09:06:11;;;;;;;;;;;;;;;4.59;100.00;95454.47;5066418;28;19955;-68
2023/12/31 09:08:36;;;;;;;;;;;;;;;4.61;100.00;95465.44;5066349;28;19963;-68
2023/12/31 09:11:02;;;;;;;;;;;;;;;4.62;100.00;95452.25;5066332;28;19952;-81
2023/12/31 09:13:28;;;;;;;;;;;;;;;4.62;100.00;95465.25;5066404;28;19958;-78
2023/12/31 09:15:55;;;;;;;;;;;;;;;4.62;100.00;95462.66;5066343;28;19975;-72
2023/12/31 09:18:23;;;;;;;;;;;;;;;4.62;100.00;95430.66;5066299;28;19963;-72
2023/12/31 09:20:49;;;;;;;;;;;;;;;4.65;100.00;95461.44;5066461;28;19951;-72
2023/12/31 09:23:16;;;;;;;;;;;;;;;4.68;100.00;95428.06;5066368;28;20009;-72
2023/12/31 09:25:42;;;;;;;;;;;;;;;4.72;100.00;95448.44;5066190;28;19953;-72
2023/12/31 09:28:08;;;;;;;;;;;;;;;4.78;100.00;95470.97;5066452;28;20062;-72
2023/12/31 09:30:34;;;;;;;;;;;;;;;4.82;100.00;95459.97;5065818;28;20245;-71
2023/12/31 09:33:00;;;;;;;;;;;;;;;4.88;100.00;95453.97;5065891;28;19953;-69
2023/12/31 09:35:26;;;;;;;;;;;;;;;4.97;100.00;95464.13;5066125;28;19962;-69
2023/12/31 09:37:52;;;;;;;;;;;;;;;5.08;100.00;95460.84;5065768;28;19965;-68
2023/12/31 09:40:18;;;;;;;;;;;;;;;5.20;100.00;95456.59;5065902;28;19954;-69
2023/12/31 09:42:50;;;;;;;;;;;;;;;5.31;100.00;95438.75;5065829;28;19956;-69
2023/12/31 09:45:21;;;;;;;;;;;;;;;5.49;100.00;95431.84;5065963;28;19967;-69
2023/12/31 09:47:50;;;;;;;;;;;;;;;5.66;100.00;95413.91;5065884;28;19957;-71
2023/12/31 09:50:18;;;;;;;;;;;;;;;5.83;100.00;95406.38;5065361;28;20256;-70
2023/12/31 09:52:46;;;;;;;;;;;;;;;6.02;100.00;95396.03;5065555;28;19963;-81
2023/12/31 09:55:12;;;;;;;;;;;;;;;6.07;100.00;95375.38;5066051;28;19957;-82
2023/12/31 09:57:40;;;;;;;;;;;;;;;6.14;100.00;95383.91;5065773;28;20152;-82
2023/12/31 10:00:06;;;;;;;;;;;;;;;6.22;100.00;95359.41;5065855;28;19962;-82
2023/12/31 10:02:32;;;;;;;;;;;;;;;6.19;100.00;95365.03;5065734;28;19962;-82
2023/12/31 10:04:58;;;;;;;;;;;;;;;6.18;100.00;95374.66;5065406;28;20019;-81
2023/12/31 10:07:26;;;;;;;;;;;;;;;6.16;100.00;95336.84;5065223;28;20016;-69
2023/12/31 10:09:54;;;;;;;;;;;;;;;6.15;100.00;95325.59;5065636;28;19963;-69
2023/12/31 10:12:20;;;;;;;;;;;;;;;6.16;100.00;95306.41;5065416;28;19956;-69
2023/12/31 10:14:46;;;;;;;;;;;;;;;6.15;100.00;95301.41;5065468;28;19953;-68
2023/12/31 10:17:11;;;;;;;;;;;;;;;6.13;100.00;95288.59;5065363;28;19971;-69
2023/12/31 10:19:38;;;;;;;;;;;;;;;6.14;100.00;95311.03;5065602;28;20260;-69
2023/12/31 10:22:05;;;;;;;;;;;;;;;6.15;100.00;95307.38;5063807;28;19969;-69
2023/12/31 10:24:31;;;;;;;;;;;;;;;6.14;100.00;95273.78;5065131;28;19956;-68
2023/12/31 10:27:00;;;;;;;;;;;;;;;6.14;100.00;95292.00;5065208;28;20135;-82
2023/12/31 10:29:26;;;;;;;;;;;;;;;6.16;100.00;95295.19;5065041;28;19951;-81
2023/12/31 10:31:53;;;;;;;;;;;;;;;6.14;100.00;95281.59;5064951;28;19962;-81
2023/12/31 10:34:19;;;;;;;;;;;;;;;6.14;100.00;95287.59;5065117;28;19960;-81
2023/12/31 10:36:45;;;;;;;;;;;;;;;6.15;100.00;95259.75;5063553;28;19957;-82
2023/12/31 10:39:32;;;;;;;;;;;;;;;6.16;100.00;95282.19;5064827;28;20232;-82
2023/12/31 10:41:59;;;;;;;;;;;;;;;6.20;100.00;95285.94;5064803;28;19953;-81
2023/12/31 10:44:28;;;;;;;;;;;;;;;6.27;100.00;95284.81;5064417;28;19953;-72
2023/12/31 10:46:56;;;;;;;;;;;;;;;6.33;100.00;95285.75;5064838;28;20178;-68
2023/12/31 10:49:23;;;;;;;;;;;;;;;6.38;100.00;95272.88;5064932;28;20140;-67
2023/12/31 10:51:51;;;;;;;;;;;;;;;6.39;100.00;95245.84;5064417;28;19962;-68
2023/12/31 10:54:23;;;;;;;;;;;;;;;6.43;100.00;95249.59;5064386;28;19961;-68
2023/12/31 10:56:49;;;;;;;;;;;;;;;6.56;100.00;95323.34;5064691;28;19963;-69
2023/12/31 10:59:16;;;;;;;;;;;;;;;6.84;100.00;95250.59;5064490;28;19977;-69
2023/12/31 11:01:43;;;;;;;;;;;;;;;6.87;100.00;95208.47;5064479;28;20260;-82
2023/12/31 11:04:10;;;;;;;;;;;;;;;6.82;100.00;95210.94;5064693;28;19959;-72
2023/12/31 11:06:36;;;;;;;;;;;;;;;6.81;100.00;95221.59;5064574;28;19959;-72
2023/12/31 11:09:02;;;;;;;;;;;;;;;6.75;100.00;95212.06;5064389;28;19964;-71
2023/12/31 11:11:28;;;;;;;;;;;;;;;6.68;100.00;95220.00;5064486;28;19967;-71
2023/12/31 11:13:55;;;;;;;;;;;;;;;6.61;100.00;95248.72;5064350;28;19953;-73
2023/12/31 11:16:29;;;;;;;;;;;;;;;6.57;100.00;95263.19;5064052;28;19961;-71
2023/12/31 11:18:58;;;;;;;;;;;;;;;6.53;100.00;95282.91;5064012;28;19961;-73
2023/12/31 11:21:27;;;;;;;;;;;;;;;6.50;100.00;95294.56;5064326;28;20152;-82
2023/12/31 11:24:19;;;;;;;;;;;;;;;6.46;100.00;95308.25;5064150;28;19954;-83
2023/12/31 11:27:02;;;;;;;;;;;;;;;6.42;100.00;95343.53;5060441;28;19960;-83
2023/12/31 11:29:28;;;;;;;;;;;;;;;6.39;100.00;95367.44;5064658;28;19946;-83
2023/12/31 11:31:54;;;;;;;;;;;;;;;6.35;100.00;95403.50;5063913;28;19964;-82
2023/12/31 11:34:19;;;;;;;;;;;;;;;6.35;100.00;95439.97;5062982;28;19959;-82
2023/12/31 11:36:45;;;;;;;;;;;;;;;6.39;100.00;95450.75;5064177;28;19955;-81
2023/12/31 11:39:17;;;;;;;;;;;;;;;6.42;100.00;95458.91;5063788;28;19969;-73
2023/12/31 11:41:47;;;;;;;;;;;;;;;6.40;100.00;95478.38;5064306;28;19959;-76
2023/12/31 11:44:32;;;;;;;;;;;;;;;6.36;100.00;95477.22;5063553;28;20152;-76
2023/12/31 11:46:58;;;;;;;;;;;;;;;6.27;100.00;95480.09;5064093;28;20136;-76
2023/12/31 11:49:25;;;;;;;;;;;;;;;6.22;100.00;95489.56;5064102;28;19958;-76
2023/12/31 11:51:58;;;;;;;;;;;;;;;6.17;100.00;95484.19;5064039;28;19972;-77
2023/12/31 11:54:33;;;;;;;;;;;;;;;6.14;100.00;95495.03;5064008;28;19966;-76
2023/12/31 11:56:59;;;;;;;;;;;;;;;6.12;100.00;95497.06;5064069;28;20172;-76
2023/12/31 11:59:25;;;;;;;;;;;;;;;6.08;100.00;95502.66;5063673;28;19961;-70
2023/12/31 12:01:52;;;;;;;;;;;;;;;6.08;100.00;95502.66;5063857;28;19965;-70
2023/12/31 12:04:17;;;;;;;;;;;;;;;6.09;100.00;95503.50;5063710;28;20014;-70
2023/12/31 12:06:44;;;;;;;;;;;;;;;6.09;100.00;95511.28;5063915;28;19959;-70
2023/12/31 12:09:10;;;;;;;;;;;;;;;6.08;100.00;95501.88;5063677;28;20052;-70
2023/12/31 12:11:43;;;;;;;;;;;;;;;6.06;100.00;95517.69;5063781;28;19957;-70
2023/12/31 12:14:10;;;;;;;;;;;;;;;6.06;100.00;95509.09;5063249;28;20246;-70
2023/12/31 12:16:37;;;;;;;;;;;;;;;6.04;100.00;95511.13;5063332;28;19945;-68
2023/12/31 12:19:05;;;;;;;;;;;;;;;6.06;100.00;95515.09;5063719;28;19965;-73
2023/12/31 12:21:31;;;;;;;;;;;;;;;6.07;100.00;95518.53;5063645;28;19957;-73
2023/12/31 12:23:57;;;;;;;;;;;;;;;6.08;100.00;95514.91;5063912;28;19951;-73
2023/12/31 12:26:23;;;;;;;;;;;;;;;6.09;100.00;95513.91;5063815;28;20244;-73
2023/12/31 12:28:49;;;;;;;;;;;;;;;6.10;100.00;95511.06;5063448;28;19953;-73
2023/12/31 12:31:16;;;;;;;;;;;;;;;6.12;100.00;95516.06;5063386;28;19964;-74
2023/12/31 12:33:43;;;;;;;;;;;;;;;6.12;100.00;95512.66;5063481;28;19957;-81
2023/12/31 12:36:10;;;;;;;;;;;;;;;6.13;100.00;95515.03;5063732;28;19957;-73
2023/12/31 12:38:36;;;;;;;;;;;;;;;6.11;100.00;95511.88;5063443;28;19969;-73
2023/12/31 12:41:02;;;;;;;;;;;;;;;6.09;100.00;95509.47;5063573;28;19964;-73
2023/12/31 12:43:30;;;;;;;;;;;;;;;6.08;100.00;95514.91;5063083;28;19951;-73